Time;durP1;ratioP1;P1;durP2;ratioP2;P2;SDS_P1;SDS_P2;PMS_P1;PMS_P2;Temp;Humidity;BMP_temperature;BMP_pressure;BME280_temperature;BME280_humidity;BME280_pressure;Samples;Min_cycle;Max_cycle;Signal;HPM_P1;HPM_P2
2023/07/27 00:00:17;;;;;;;7.63;1.77;;;;;;;-142.57;91.52;115900.28;6221208;23;20019;-89
2023/07/27 00:02:43;;;;;;;4.38;2.08;;;;;;;-142.57;93.49;115900.28;6175787;23;20034;-84
2023/07/27 00:05:09;;;;;;;4.63;1.50;;;;;;;-142.57;93.34;115900.28;6227936;23;20328;-81
2023/07/27 00:07:37;;;;;;;3.92;1.75;;;;;;;-142.57;94.34;115900.28;6205765;23;20035;-88
2023/07/27 00:10:06;;;;;;;4.22;1.65;;;;;;;-142.57;94.59;115900.28;6196523;23;20024;-86
2023/07/27 00:12:34;;;;;;;5.57;1.92;;;;;;;-142.57;98.49;115900.28;6197709;23;20455;-84
2023/07/27 00:15:00;;;;;;;9.25;1.55;;;;;;;-142.57;95.71;115900.28;6223785;23;20012;-89
2023/07/27 00:17:25;;;;;;;4.30;1.60;;;;;;;-142.57;95.39;115900.28;6221861;23;20019;-86
2023/07/27 00:19:54;;;;;;;5.90;1.48;;;;;;;-142.57;94.65;115900.28;6195598;23;20016;-87
2023/07/27 00:22:23;;;;;;;7.20;1.90;;;;;;;-142.57;97.31;115900.28;6220386;23;20424;-90
2023/07/27 00:24:48;;;;;;;3.53;1.50;;;;;;;-142.57;96.40;115900.28;6222085;23;20035;-89
2023/07/27 00:27:14;;;;;;;3.20;1.48;;;;;;;-142.57;97.04;115900.28;6223193;23;20469;-87
2023/07/27 00:29:39;;;;;;;5.60;1.35;;;;;;;-142.57;96.44;115900.28;6235043;23;20013;-88
2023/07/27 00:32:06;;;;;;;5.47;1.50;;;;;;;-142.57;98.12;115900.28;6212967;23;20008;-85
2023/07/27 00:34:32;;;;;;;6.57;1.50;;;;;;;-142.57;97.15;115900.28;6235472;23;20027;-90
2023/07/27 00:37:00;;;;;;;7.03;1.67;;;;;;;-142.57;100.00;115900.28;6223022;23;20012;-92
2023/07/27 00:39:26;;;;;;;5.65;1.48;;;;;;;-142.57;100.00;115900.28;6195734;23;20013;-90
2023/07/27 00:41:52;;;;;;;5.63;1.42;;;;;;;-142.57;100.00;115900.28;6222498;23;20016;-88
2023/07/27 00:44:21;;;;;;;7.97;1.63;;;;;;;-142.57;100.00;115900.28;6221999;23;20008;-87
2023/07/27 00:46:47;;;;;;;6.03;1.55;;;;;;;-142.57;100.00;115900.28;6195260;23;20328;-88
2023/07/27 00:49:13;;;;;;;3.75;1.67;;;;;;;-142.57;100.00;115900.28;6222103;23;20005;-89
2023/07/27 00:51:42;;;;;;;5.15;1.80;;;;;;;-142.57;100.00;115900.28;6221566;23;20009;-87
2023/07/27 00:54:09;;;;;;;8.25;2.20;;;;;;;-142.57;100.00;115900.28;6197008;23;20019;-91
2023/07/27 00:56:36;;;;;;;5.68;1.65;;;;;;;-142.57;100.00;115900.28;6223275;23;20016;-87
2023/07/27 00:59:03;;;;;;;4.90;1.92;;;;;;;-142.57;100.00;115900.28;6223543;23;20446;-88
2023/07/27 01:01:28;;;;;;;6.63;2.20;;;;;;;-142.57;100.00;115900.28;6221422;23;20008;-87
2023/07/27 01:03:57;;;;;;;7.93;2.00;;;;;;;-142.57;100.00;115900.28;6196312;23;20016;-87
2023/07/27 01:06:23;;;;;;;4.90;1.77;;;;;;;-142.57;100.00;115900.28;6222626;23;20013;-88
2023/07/27 01:08:51;;;;;;;5.03;2.40;;;;;;;-142.57;100.00;115900.28;6222519;23;20008;-86
2023/07/27 01:11:28;;;;;;;5.05;1.80;;;;;;;-142.57;100.00;115900.28;6222459;23;20007;-88
2023/07/27 01:14:21;;;;;;;3.92;2.00;;;;;;;-142.57;100.00;115900.28;6223462;23;20037;-90
2023/07/27 01:16:51;;;;;;;7.28;2.13;;;;;;;-142.57;100.00;115900.28;6222775;23;20024;-89
2023/07/27 01:19:30;;;;;;;5.07;2.22;;;;;;;-142.57;100.00;115900.28;6196547;23;20008;-88
2023/07/27 01:22:27;;;;;;;10.50;1.83;;;;;;;-142.57;100.00;115900.28;6222148;23;20455;-89
2023/07/27 01:25:21;;;;;;;3.45;1.67;;;;;;;-142.57;100.00;115900.28;6194453;23;20020;-89
2023/07/27 01:28:15;;;;;;;3.38;1.88;;;;;;;-142.57;100.00;115900.28;6236337;23;20009;-90
2023/07/27 01:31:17;;;;;;;4.97;2.05;;;;;;;-142.57;100.00;115900.28;6222990;23;20115;-90
2023/07/27 01:33:52;;;;;;;4.57;1.88;;;;;;;-142.57;100.00;115900.28;6155149;23;20015;-90
2023/07/27 01:36:21;;;;;;;8.45;1.90;;;;;;;-142.57;100.00;115900.28;6196840;23;20027;-89
2023/07/27 01:38:49;;;;;;;6.63;2.58;;;;;;;-142.57;100.00;115900.28;6196753;23;20016;-88
2023/07/27 01:41:16;;;;;;;7.38;2.17;;;;;;;-142.57;100.00;115900.28;6196439;23;20100;-87
2023/07/27 01:43:43;;;;;;;3.10;1.92;;;;;;;-142.57;100.00;115900.28;6223269;23;20087;-89
2023/07/27 01:46:11;;;;;;;7.65;2.10;;;;;;;-142.57;100.00;115900.28;6196504;23;20439;-90
2023/07/27 01:48:41;;;;;;;5.70;1.98;;;;;;;-142.57;100.00;115900.28;6223100;23;20039;-87
2023/07/27 01:51:08;;;;;;;7.20;2.00;;;;;;;-142.57;100.00;115900.28;6222453;23;20079;-88
2023/07/27 01:53:35;;;;;;;5.75;2.35;;;;;;;-142.57;100.00;115900.28;6223016;23;20012;-88
2023/07/27 01:56:04;;;;;;;6.40;2.35;;;;;;;-142.57;100.00;115900.28;6196936;23;20040;-91
2023/07/27 01:58:37;;;;;;;4.10;1.88;;;;;;;-142.57;100.00;115900.28;6196112;23;20005;-91
2023/07/27 02:01:03;;;;;;;4.05;1.83;;;;;;;-142.57;100.00;115900.28;6196545;23;20076;-90
2023/07/27 02:03:30;;;;;;;5.15;2.15;;;;;;;-142.57;100.00;115900.28;6224250;23;20428;-87
2023/07/27 02:06:00;;;;;;;8.70;2.35;;;;;;;-142.57;100.00;115900.28;6201514;23;20340;-91
2023/07/27 02:08:26;;;;;;;3.40;2.20;;;;;;;-142.57;100.00;115900.28;6220719;23;20005;-93
2023/07/27 02:10:57;;;;;;;4.90;2.50;;;;;;;-142.57;100.00;115900.28;6195871;23;20027;-90
2023/07/27 02:13:54;;;;;;;4.07;2.20;;;;;;;-142.57;100.00;115900.28;6195271;23;20036;-91
2023/07/27 02:16:43;;;;;;;5.82;2.15;;;;;;;-142.57;100.00;115900.28;6195754;23;20024;-89
2023/07/27 02:19:10;;;;;;;6.65;3.05;;;;;;;-142.57;100.00;115900.28;6221447;23;20036;-89
2023/07/27 02:21:36;;;;;;;3.75;2.75;;;;;;;-142.57;100.00;115900.28;6195257;23;20471;-90
2023/07/27 02:24:07;;;;;;;5.00;2.92;;;;;;;-142.57;100.00;115900.28;6223421;23;20020;-88
2023/07/27 02:26:33;;;;;;;7.53;3.10;;;;;;;-142.57;100.00;115900.28;6194100;23;20012;-89
2023/07/27 02:28:59;;;;;;;5.97;2.55;;;;;;;-142.57;100.00;115900.28;6222222;23;20016;-90
2023/07/27 02:31:26;;;;;;;7.57;3.38;;;;;;;-142.57;100.00;115900.28;6195743;23;20427;-89
2023/07/27 02:33:52;;;;;;;3.47;2.55;;;;;;;-142.57;100.00;115900.28;6223305;23;20012;-89
2023/07/27 02:36:19;;;;;;;5.47;2.55;;;;;;;-142.57;100.00;115900.28;6195498;23;20108;-91
2023/07/27 02:38:44;;;;;;;4.43;2.85;;;;;;;-142.57;100.00;115900.28;6221817;23;20119;-90
2023/07/27 02:41:17;;;;;;;;;;;;;;;-142.57;100.00;115900.28;6223023;23;20112;-90
2023/07/27 02:43:43;;;;;;;5.85;2.95;;;;;;;-142.57;100.00;115900.28;6222932;23;19966;-90
2023/07/27 02:46:09;;;;;;;6.13;3.30;;;;;;;-142.57;100.00;115900.28;6202612;23;20035;-91
2023/07/27 02:48:38;;;;;;;5.43;2.97;;;;;;;-142.57;100.00;115900.28;6236192;23;20015;-91
2023/07/27 02:51:05;;;;;;;6.18;2.88;;;;;;;-142.57;100.00;115900.28;6195865;23;20013;-88
2023/07/27 02:53:33;;;;;;;5.82;2.67;;;;;;;-142.57;100.00;115900.28;6196306;23;20039;-88
2023/07/27 02:56:05;;;;;;;8.20;3.13;;;;;;;-142.57;100.00;115900.28;6224455;23;20008;-88
2023/07/27 02:58:44;;;;;;;7.18;3.10;;;;;;;-142.57;100.00;115900.28;6183076;23;20039;-86
2023/07/27 03:01:10;;;;;;;6.63;3.00;;;;;;;-142.57;100.00;115900.28;6205145;23;20009;-88
2023/07/27 03:03:42;;;;;;;5.70;2.83;;;;;;;-142.57;100.00;115900.28;6197104;23;20332;-84
2023/07/27 03:06:10;;;;;;;6.10;3.38;;;;;;;-142.57;100.00;115900.28;6233338;23;20004;-87
2023/07/27 03:08:40;;;;;;;3.75;2.53;;;;;;;-142.57;100.00;115900.28;6207021;23;20009;-84
2023/07/27 03:11:06;;;;;;;5.50;2.88;;;;;;;-142.57;100.00;115900.28;6173797;23;20017;-84
2023/07/27 03:13:32;;;;;;;6.10;3.15;;;;;;;-142.57;100.00;115900.28;6230173;23;20020;-92
2023/07/27 03:15:59;;;;;;;8.85;3.38;;;;;;;-142.57;100.00;115900.28;6229374;23;20005;-86
2023/07/27 03:18:34;;;;;;;14.82;3.40;;;;;;;-142.57;100.00;115900.28;6134382;23;1157638;-91
2023/07/27 03:21:12;;;;;;;5.90;2.50;;;;;;;-142.57;100.00;115900.28;6231672;23;20039;-89
2023/07/27 03:27:05;;;;;;;8.23;3.38;;;;;;;-142.57;100.00;115900.28;6211183;23;20060;-83
2023/07/27 03:29:33;;;;;;;8.73;3.28;;;;;;;-142.57;100.00;115900.28;6189681;23;20012;-83
2023/07/27 03:31:59;;;;;;;5.40;2.85;;;;;;;-142.57;100.00;115900.28;6233913;23;20012;-85
2023/07/27 03:34:25;;;;;;;6.25;2.90;;;;;;;-142.57;100.00;115900.28;6200835;23;20102;-91
2023/07/27 03:36:50;;;;;;;5.60;3.08;;;;;;;-142.57;100.00;115900.28;6226844;23;20159;-87
2023/07/27 03:39:16;;;;;;;5.07;3.17;;;;;;;-142.57;100.00;115900.28;6200036;23;20040;-91
2023/07/27 03:41:42;;;;;;;6.88;2.83;;;;;;;-142.57;100.00;115900.28;6228402;23;20043;-89
2023/07/27 03:44:09;;;;;;;6.32;3.33;;;;;;;-142.57;100.00;115900.28;6200903;23;20012;-88
2023/07/27 03:46:35;;;;;;;8.75;2.90;;;;;;;-142.57;100.00;115900.28;6225533;23;20024;-86
2023/07/27 03:49:00;;;;;;;9.18;3.05;;;;;;;-142.57;100.00;115900.28;6223591;23;20004;-86
2023/07/27 03:51:29;;;;;;;6.50;3.45;;;;;;;-142.57;100.00;115900.28;6194993;23;20016;-87
2023/07/27 03:53:54;;;;;;;6.90;3.10;;;;;;;-142.57;100.00;115900.28;6195982;23;20498;-85
2023/07/27 03:56:32;;;;;;;8.38;3.30;;;;;;;-142.57;100.00;115900.28;6221727;23;20095;-89
2023/07/27 03:58:58;;;;;;;6.43;3.00;;;;;;;-142.57;100.00;115900.28;6196426;23;20047;-88
2023/07/27 04:01:24;;;;;;;4.32;2.53;;;;;;;-142.57;100.00;115900.28;6221872;23;20332;-85
2023/07/27 04:03:49;;;;;;;5.57;2.38;;;;;;;-142.57;100.00;115900.28;6197119;23;20108;-88
2023/07/27 04:06:15;;;;;;;9.82;3.20;;;;;;;-142.57;100.00;115900.28;6225465;23;20463;-88
2023/07/27 04:08:40;;;;;;;7.43;3.40;;;;;;;-142.57;100.00;115900.28;6236485;23;20032;-85
2023/07/27 04:11:06;;;;;;;8.00;3.17;;;;;;;-142.57;100.00;115900.28;6199614;23;20028;-85
2023/07/27 04:13:32;;;;;;;7.82;3.22;;;;;;;-142.57;100.00;115900.28;6223121;23;20020;-89
2023/07/27 04:15:58;;;;;;;5.75;3.22;;;;;;;-142.57;100.00;115900.28;6195199;23;20009;-87
2023/07/27 04:18:23;;;;;;;11.38;3.35;;;;;;;-142.57;100.00;115900.28;6221466;23;20122;-87
2023/07/27 04:20:49;;;;;;;9.40;3.63;;;;;;;-142.57;100.00;115900.28;6223505;23;20055;-85
2023/07/27 04:23:14;;;;;;;6.90;3.10;;;;;;;-142.57;100.00;115900.28;6195849;23;20351;-88
2023/07/27 04:25:40;;;;;;;12.30;3.20;;;;;;;-142.57;100.00;115900.28;6196253;23;20060;-88
2023/07/27 04:28:05;;;;;;;7.97;3.35;;;;;;;-142.57;100.00;115900.28;6221561;23;20036;-88
2023/07/27 04:30:31;;;;;;;9.32;3.42;;;;;;;-142.57;100.00;115900.28;6222097;23;20438;-82
2023/07/27 04:32:57;;;;;;;6.15;2.92;;;;;;;-142.57;100.00;115900.28;6221032;23;20084;-86
2023/07/27 04:35:22;;;;;;;6.97;3.25;;;;;;;-142.57;100.00;115900.28;6222723;23;20000;-85
2023/07/27 04:37:48;;;;;;;8.25;3.10;;;;;;;-142.57;100.00;115900.28;6222857;23;20074;-86
2023/07/27 04:40:14;;;;;;;6.28;3.25;;;;;;;-142.57;100.00;115900.28;6223470;23;20008;-86
2023/07/27 04:42:40;;;;;;;6.55;3.15;;;;;;;-142.57;100.00;115900.28;6223161;23;20024;-88
2023/07/27 04:45:07;;;;;;;6.88;3.13;;;;;;;-142.57;100.00;115900.28;6220753;23;20020;-80
2023/07/27 04:47:32;;;;;;;5.50;3.30;;;;;;;-142.57;100.00;115900.28;6195686;23;20044;-82
2023/07/27 04:49:58;;;;;;;12.32;3.10;;;;;;;-142.57;100.00;115900.28;6219060;23;20035;-85
2023/07/27 04:52:24;;;;;;;9.60;3.25;;;;;;;-142.57;100.00;115900.28;6222988;23;20025;-82
2023/07/27 04:54:50;;;;;;;5.80;2.95;;;;;;;-142.57;100.00;115900.28;6208660;23;20039;-80
2023/07/27 04:57:19;;;;;;;7.65;3.28;;;;;;;-142.57;100.00;115900.28;6238414;23;20008;-80
2023/07/27 04:59:48;;;;;;;7.75;3.42;;;;;;;-142.57;100.00;115900.28;6240006;23;20008;-84
2023/07/27 05:02:16;;;;;;;5.78;2.55;;;;;;;-142.57;100.00;115900.28;6240774;23;20117;-82
2023/07/27 05:04:50;;;;;;;6.97;3.20;;;;;;;-142.57;100.00;115900.28;6237591;23;20020;-88
2023/07/27 05:07:16;;;;;;;7.88;3.08;;;;;;;-142.57;100.00;115900.28;6229230;23;20018;-83
2023/07/27 05:09:41;;;;;;;12.05;3.55;;;;;;;-142.57;100.00;115900.28;6227389;23;20036;-82
2023/07/27 05:12:07;;;;;;;12.05;3.35;;;;;;;-142.57;100.00;115900.28;6222776;23;20032;-83
2023/07/27 05:14:32;;;;;;;6.97;3.30;;;;;;;-142.57;100.00;115900.28;6222451;23;20000;-88
2023/07/27 05:16:58;;;;;;;7.18;3.28;;;;;;;-142.57;100.00;115900.28;6220024;23;20021;-78
2023/07/27 05:19:24;;;;;;;10.18;3.40;;;;;;;-142.57;100.00;115900.28;6219465;23;20317;-89
2023/07/27 05:21:50;;;;;;;8.93;3.50;;;;;;;-142.57;100.00;115900.28;6201585;23;20484;-85
2023/07/27 05:24:15;;;;;;;7.65;3.20;;;;;;;-142.57;100.00;115900.28;6224784;23;20040;-88
2023/07/27 05:26:41;;;;;;;6.93;3.25;;;;;;;-142.57;100.00;115900.28;6224295;23;20059;-88
2023/07/27 05:29:07;;;;;;;14.35;3.83;;;;;;;-142.57;100.00;115900.28;6226491;23;20013;-84
2023/07/27 05:31:33;;;;;;;4.90;3.15;;;;;;;-142.57;100.00;115900.28;6224590;23;20023;-89
2023/07/27 05:33:59;;;;;;;12.85;3.20;;;;;;;-142.57;100.00;115900.28;6194240;23;20081;-85
2023/07/27 05:36:25;;;;;;;8.68;3.05;;;;;;;-142.57;100.00;115900.28;6195913;23;20012;-88
2023/07/27 05:38:51;;;;;;;10.00;3.40;;;;;;;-142.57;100.00;115900.28;6222160;23;20005;-88
2023/07/27 05:41:16;;;;;;;6.28;2.90;;;;;;;-142.57;100.00;115900.28;6222636;23;20009;-85
2023/07/27 05:43:42;;;;;;;7.32;3.15;;;;;;;-142.57;100.00;115900.28;6195472;23;20080;-85
2023/07/27 05:46:07;;;;;;;9.27;3.08;;;;;;;-142.57;100.00;115900.28;6220254;23;20016;-82
2023/07/27 05:48:34;;;;;;;11.15;3.70;;;;;;;-142.57;100.00;115900.28;6190891;23;20067;-82
2023/07/27 05:50:59;;;;;;;9.32;3.08;;;;;;;-142.57;100.00;115900.28;6217154;23;20015;-81
2023/07/27 05:53:25;;;;;;;8.55;2.67;;;;;;;-142.57;100.00;115900.28;6217704;23;20013;-83
2023/07/27 05:55:50;;;;;;;19.30;3.70;;;;;;;-142.57;100.00;115900.28;6191310;23;20058;-85
2023/07/27 05:58:16;;;;;;;18.08;4.45;;;;;;;-142.57;100.00;115900.28;6215974;23;20005;-82
2023/07/27 06:00:42;;;;;;;12.35;4.03;;;;;;;-142.57;100.00;115900.28;6220247;23;20439;-85
2023/07/27 06:03:07;;;;;;;12.43;4.25;;;;;;;-142.57;100.00;115900.28;6220636;23;20124;-86
2023/07/27 06:05:33;;;;;;;16.13;4.45;;;;;;;-142.57;100.00;115900.28;6219377;23;20008;-85
2023/07/27 06:07:58;;;;;;;10.55;4.32;;;;;;;-142.57;100.00;115900.28;6220159;23;20013;-87
2023/07/27 06:10:24;;;;;;;8.48;3.97;;;;;;;-142.57;100.00;115900.28;6218013;23;20007;-82
2023/07/27 06:12:49;;;;;;;10.30;4.00;;;;;;;-142.57;100.00;115900.28;6217427;23;20330;-87
2023/07/27 06:15:15;;;;;;;13.05;3.83;;;;;;;-142.57;100.00;115900.28;6217817;23;20019;-82
2023/07/27 06:17:40;;;;;;;9.63;3.83;;;;;;;-142.57;100.00;115900.28;6218386;23;20019;-84
2023/07/27 06:20:06;;;;;;;9.88;3.70;;;;;;;-142.57;97.67;115900.28;6218586;23;20009;-83
2023/07/27 06:22:32;;;;;;;11.10;3.65;;;;;;;-142.57;100.00;115900.28;6196758;23;19997;-83
2023/07/27 06:24:57;;;;;;;9.88;3.50;;;;;;;-142.57;99.88;115900.28;6234254;23;20035;-83
2023/07/27 06:27:26;;;;;;;12.00;3.45;;;;;;;-142.57;99.14;115900.28;6240775;23;20015;-90
2023/07/27 06:29:54;;;;;;;12.52;4.07;;;;;;;-142.57;99.01;115900.28;6225606;23;20071;-88
2023/07/27 06:32:22;;;;;;;11.75;4.43;;;;;;;-142.57;95.25;115900.28;6223303;23;20013;-84
2023/07/27 06:34:48;;;;;;;10.60;4.35;;;;;;;-142.57;96.66;115900.28;6222437;23;19997;-92
2023/07/27 06:37:16;;;;;;;14.02;5.00;;;;;;;-142.57;94.93;115900.28;6226304;23;20013;-84
2023/07/27 06:39:42;;;;;;;11.10;5.18;;;;;;;-142.57;91.00;115900.28;6223222;23;20009;-86
2023/07/27 06:42:07;;;;;;;12.82;4.07;;;;;;;-142.57;90.13;115900.28;6216467;23;20035;-82
2023/07/27 06:44:34;;;;;;;10.90;3.92;;;;;;;-142.57;87.31;115900.28;6195595;23;20049;-86
2023/07/27 06:46:59;;;;;;;16.50;3.95;;;;;;;-142.57;88.38;115900.28;6219702;23;20332;-84
2023/07/27 06:49:25;;;;;;;10.85;3.78;;;;;;;-142.57;84.08;115900.28;6224495;23;20076;-84
2023/07/27 06:51:50;;;;;;;11.65;3.58;;;;;;;-142.57;80.20;115900.28;6230581;23;20050;-93
2023/07/27 06:54:22;;;;;;;12.00;3.75;;;;;;;-142.57;82.72;115900.28;6227005;23;20009;-90
2023/07/27 06:56:48;;;;;;;11.52;3.70;;;;;;;-142.57;84.65;115900.28;6200259;23;20017;-89
2023/07/27 06:59:15;;;;;;;9.20;3.65;;;;;;;-142.57;75.31;115900.28;6228890;23;20132;-84
2023/07/27 07:01:41;;;;;;;11.05;3.70;;;;;;;-142.57;74.30;115900.28;6197141;23;20383;-87
2023/07/27 07:04:07;;;;;;;9.45;3.45;;;;;;;-142.57;79.09;115900.28;6193052;23;20016;-86
2023/07/27 07:06:35;;;;;;;9.23;4.20;;;;;;;-142.57;85.81;115900.28;6191721;23;20044;-87
2023/07/27 07:09:01;;;;;;;18.35;4.20;;;;;;;-142.57;82.10;115900.28;6196098;23;20005;-82
2023/07/27 07:11:35;;;;;;;10.30;3.55;;;;;;;-142.57;77.15;115900.28;6197354;23;20021;-90
2023/07/27 07:14:01;;;;;;;10.90;3.60;;;;;;;-142.57;78.96;115900.28;6223443;23;20012;-80
2023/07/27 07:16:27;;;;;;;8.23;3.30;;;;;;;-142.57;76.67;115900.28;6222340;23;20065;-86
2023/07/27 07:19:05;;;;;;;17.98;4.78;;;;;;;-142.57;72.55;115900.28;6207158;23;20020;-81
2023/07/27 07:21:34;;;;;;;8.55;3.55;;;;;;;-142.57;72.62;115900.28;6229190;23;20048;-83
2023/07/27 07:24:02;;;;;;;8.23;3.10;;;;;;;-142.57;70.23;115900.28;6201620;23;20008;-85
2023/07/27 07:26:31;;;;;;;14.48;3.90;;;;;;;-142.57;75.17;115900.28;6200338;23;20043;-82
2023/07/27 07:28:57;;;;;;;9.25;3.15;;;;;;;-142.57;73.17;115900.28;6226516;23;20100;-82
2023/07/27 07:31:22;;;;;;;11.18;3.20;;;;;;;-142.57;70.07;115900.28;6200919;23;20059;-83
2023/07/27 07:33:48;;;;;;;9.43;3.42;;;;;;;-142.57;73.20;115900.28;6226553;23;20005;-82
2023/07/27 07:36:13;;;;;;;11.93;3.72;;;;;;;-142.57;70.63;115900.28;6222320;23;20379;-85
2023/07/27 07:38:39;;;;;;;11.52;3.95;;;;;;;-142.57;70.61;115900.28;6223214;23;20008;-87
2023/07/27 07:41:08;;;;;;;9.48;3.35;;;;;;;-142.57;69.59;115900.28;6198198;23;20008;-85
2023/07/27 07:43:36;;;;;;;10.98;3.67;;;;;;;-142.57;69.00;115900.28;6200962;23;20070;-87
2023/07/27 07:46:02;;;;;;;8.48;3.25;;;;;;;-142.57;62.42;115900.28;6223228;23;20001;-85
2023/07/27 07:48:31;;;;;;;6.90;3.15;;;;;;;-142.57;64.25;115900.28;6224028;23;20108;-92
2023/07/27 07:51:18;;;;;;;4.38;2.65;;;;;;;-142.57;67.66;115900.28;6192708;23;20024;-91
2023/07/27 07:59:04;;;;;;;8.70;2.72;;;;;;;-142.57;62.76;115900.28;6223829;23;20348;-90
2023/07/27 08:01:39;;;;;;;9.73;3.25;;;;;;;-142.57;67.44;115900.28;6203914;23;20076;-92
2023/07/27 08:04:08;;;;;;;11.93;3.20;;;;;;;-142.57;67.39;115900.28;6235294;23;20056;-92
2023/07/27 08:06:46;;;;;;;7.05;3.20;;;;;;;-142.57;65.67;115900.28;6226757;22;20076;-88
2023/07/27 08:09:12;;;;;;;9.68;4.10;;;;;;;-142.57;64.83;115900.28;6226340;23;20019;-87
2023/07/27 08:11:41;;;;;;;9.93;3.50;;;;;;;-142.57;62.01;115900.28;6219723;23;20321;-89
2023/07/27 08:16:36;;;;;;;10.93;3.75;;;;;;;-142.57;66.84;115900.28;6227467;23;20020;-91
2023/07/27 08:19:02;;;;;;;9.93;3.70;;;;;;;-142.57;69.63;115900.28;6222358;23;20035;-88
2023/07/27 08:21:30;;;;;;;8.23;3.72;;;;;;;-142.57;68.70;115900.28;6227167;23;20008;-89
2023/07/27 08:23:57;;;;;;;13.38;4.03;;;;;;;-142.57;69.17;115900.28;6199011;23;20009;-90
2023/07/27 08:26:23;;;;;;;9.38;3.85;;;;;;;-142.57;69.39;115900.28;6218914;23;20021;-87
2023/07/27 08:28:55;;;;;;;15.02;4.45;;;;;;;-142.57;69.26;115900.28;6221001;23;20016;-90
2023/07/27 08:31:25;;;;;;;14.35;3.47;;;;;;;-142.57;69.39;115900.28;6201925;23;20016;-88
2023/07/27 08:33:50;;;;;;;8.57;3.25;;;;;;;-142.57;69.17;115900.28;6230336;23;20005;-88
2023/07/27 08:36:17;;;;;;;13.55;2.60;;;;;;;-142.57;70.01;115900.28;6224731;23;20068;-84
2023/07/27 08:38:42;;;;;;;9.50;3.40;;;;;;;-142.57;67.22;115900.28;6192239;23;20506;-85
2023/07/27 08:41:08;;;;;;;9.23;2.38;;;;;;;-142.57;66.18;115900.28;6218133;23;20008;-83
2023/07/27 08:43:33;;;;;;;7.07;2.42;;;;;;;-142.57;65.50;115900.28;6218310;23;20047;-84
2023/07/27 08:46:00;;;;;;;7.10;3.20;;;;;;;-142.57;68.14;115900.28;6218461;23;20332;-81
2023/07/27 08:48:27;;;;;;;12.52;2.50;;;;;;;-142.57;68.17;115900.28;6213382;23;20107;-83
2023/07/27 08:50:53;;;;;;;8.75;3.00;;;;;;;-142.57;69.81;115900.28;6222896;23;20039;-85
2023/07/27 08:53:19;;;;;;;9.48;2.88;;;;;;;-142.57;72.06;115900.28;6218673;23;20017;-84
2023/07/27 08:55:45;;;;;;;6.65;2.90;;;;;;;-142.57;70.93;115900.28;6222023;23;20004;-83
2023/07/27 08:58:11;;;;;;;9.18;3.33;;;;;;;-142.57;66.08;115900.28;6216464;23;20043;-85
2023/07/27 09:00:40;;;;;;;8.05;2.75;;;;;;;-142.57;64.00;115900.28;6217259;23;20071;-85
2023/07/27 09:03:09;;;;;;;9.50;2.75;;;;;;;-142.57;64.40;115900.28;6216927;23;20028;-85
2023/07/27 09:05:45;;;;;;;10.43;2.35;;;;;;;-142.57;64.35;115900.28;6218262;23;20012;-89
2023/07/27 09:08:12;;;;;;;8.70;3.00;;;;;;;-142.57;65.95;115900.28;6231904;23;20040;-86
2023/07/27 09:10:46;;;;;;;7.82;2.47;;;;;;;-142.57;62.28;115900.28;6217265;23;20011;-88
2023/07/27 09:13:12;;;;;;;4.38;2.10;;;;;;;-142.57;58.54;115900.28;6204139;23;20342;-86
2023/07/27 09:15:44;;;;;;;6.60;2.47;;;;;;;-142.57;59.81;115900.28;6224898;23;20020;-89
2023/07/27 09:18:11;;;;;;;7.80;2.25;;;;;;;-142.57;59.67;115900.28;6194059;23;20012;-85
2023/07/27 09:20:40;;;;;;;4.78;2.20;;;;;;;-142.57;61.28;115900.28;6226163;23;20000;-87
2023/07/27 09:23:05;;;;;;;6.53;2.30;;;;;;;-142.57;62.37;115900.28;6202502;23;20032;-89
2023/07/27 09:25:31;;;;;;;6.00;2.83;;;;;;;-142.57;59.92;115900.28;6229691;23;20005;-88
2023/07/27 09:27:57;;;;;;;5.97;2.40;;;;;;;-142.57;58.17;115900.28;6228923;23;20023;-90
2023/07/27 09:30:25;;;;;;;11.85;2.30;;;;;;;-142.57;57.78;115900.28;6231130;23;20083;-88
2023/07/27 09:32:52;;;;;;;13.25;2.22;;;;;;;-142.57;57.93;115900.28;6202615;23;20017;-87
2023/07/27 09:35:19;;;;;;;6.22;2.15;;;;;;;-142.57;55.89;115900.28;6229221;23;20005;-87
2023/07/27 09:38:17;;;;;;;5.72;2.72;;;;;;;-142.57;55.89;115900.28;6217248;23;20016;-89
2023/07/27 09:41:04;;;;;;;5.85;2.10;;;;;;;-142.57;55.15;115900.28;6222442;23;20063;-89
2023/07/27 09:52:06;;;;;;;8.18;2.30;;;;;;;-142.57;49.83;115900.28;6228933;22;20379;-88
2023/07/27 09:54:33;;;;;;;7.78;2.50;;;;;;;-142.57;50.16;115900.28;6110967;23;20022;-86
2023/07/27 09:56:59;;;;;;;5.50;2.55;;;;;;;-142.57;53.12;115900.28;6134645;23;20028;-85
2023/07/27 09:59:25;;;;;;;8.82;2.58;;;;;;;-142.57;52.82;115900.28;6132446;23;20042;-83
2023/07/27 10:01:54;;;;;;;6.10;1.90;;;;;;;-142.57;51.04;115900.28;6109305;23;20014;-87
2023/07/27 10:04:20;;;;;;;6.60;2.50;;;;;;;-142.57;52.02;115900.28;6164837;23;20016;-90
2023/07/27 10:06:46;;;;;;;5.88;2.47;;;;;;;-142.57;54.35;115900.28;6218790;23;20012;-87
2023/07/27 10:09:18;;;;;;;8.18;2.80;;;;;;;-142.57;53.83;115900.28;6218332;23;20020;-89
2023/07/27 10:11:57;;;;;;;10.07;3.05;;;;;;;-142.57;53.15;115900.28;6192875;23;20035;-85
2023/07/27 10:14:26;;;;;;;7.75;2.47;;;;;;;-142.57;51.70;115900.28;6218400;23;20019;-83
2023/07/27 10:16:58;;;;;;;7.55;2.80;;;;;;;-142.57;50.30;115900.28;6191296;23;20020;-82
2023/07/27 10:19:44;;;;;;;5.68;2.60;;;;;;;-142.57;51.74;115900.28;6219285;23;20108;-82
2023/07/27 10:22:15;;;;;;;8.15;2.60;;;;;;;-142.57;55.23;115900.28;6193003;23;20013;-87
2023/07/27 10:24:58;;;;;;;5.85;2.78;;;;;;;-142.57;53.27;115900.28;6194087;23;20017;-86
2023/07/27 10:27:24;;;;;;;9.30;2.55;;;;;;;-142.57;53.22;115900.28;6220529;23;20344;-85
2023/07/27 10:30:08;;;;;;;6.47;2.70;;;;;;;-142.57;52.14;115900.28;6169559;23;20013;-86
2023/07/27 10:32:36;;;;;;;5.40;2.42;;;;;;;-142.57;50.57;115900.28;6223287;23;20015;-85
2023/07/27 10:35:08;;;;;;;5.03;2.47;;;;;;;-142.57;48.57;115900.28;6196479;23;20001;-86
2023/07/27 10:37:53;;;;;;;9.60;2.92;;;;;;;-142.57;49.40;115900.28;6220317;23;20012;-86
2023/07/27 10:40:30;;;;;;;5.55;2.65;;;;;;;-142.57;49.54;115900.28;6224980;23;20016;-91
2023/07/27 10:42:58;;;;;;;10.45;2.95;;;;;;;-142.57;48.65;115900.28;6203805;23;20019;-92
2023/07/27 10:45:26;;;;;;;7.50;2.58;;;;;;;-142.57;47.25;115900.28;6199222;23;20009;-93
2023/07/27 10:47:56;;;;;;;5.75;2.45;;;;;;;-142.57;47.26;115900.28;6208729;23;20001;-89
2023/07/27 10:50:23;;;;;;;8.75;3.15;;;;;;;-142.57;46.06;115900.28;6207903;23;20008;-88
2023/07/27 10:53:23;;;;;;;9.48;3.20;;;;;;;-142.57;47.47;115900.28;6224257;23;20023;-92
2023/07/27 10:55:49;;;;;;;9.80;2.88;;;;;;;-142.57;47.38;115900.28;6179206;23;20088;-89
2023/07/27 10:58:15;;;;;;;10.52;2.85;;;;;;;-142.57;46.37;115900.28;6194873;23;20013;-85
2023/07/27 11:00:42;;;;;;;7.85;2.35;;;;;;;-142.57;45.95;115900.28;6145222;23;20005;-86
2023/07/27 11:03:09;;;;;;;5.75;2.85;;;;;;;-142.57;45.90;115900.28;6166405;23;20013;-87
2023/07/27 11:05:34;;;;;;;5.40;2.30;;;;;;;-142.57;46.69;115900.28;6145046;23;20028;-85
2023/07/27 11:08:02;;;;;;;7.47;2.70;;;;;;;-142.57;44.62;115900.28;6194179;23;20463;-85
2023/07/27 11:10:36;;;;;;;9.98;2.78;;;;;;;-142.57;43.39;115900.28;6191437;23;20005;-86
2023/07/27 11:13:02;;;;;;;11.32;2.80;;;;;;;-142.57;41.12;115900.28;6190055;23;20067;-86
2023/07/27 11:15:30;;;;;;;6.85;2.80;;;;;;;-142.57;41.23;115900.28;6188788;23;20001;-85
2023/07/27 11:17:59;;;;;;;3.50;2.28;;;;;;;-142.57;40.19;115900.28;6164215;23;20045;-83
2023/07/27 11:20:28;;;;;;;5.57;2.70;;;;;;;-142.57;39.72;115900.28;6190040;23;20017;-85
2023/07/27 11:22:58;;;;;;;6.93;2.97;;;;;;;-142.57;42.22;115900.28;6193502;23;20186;-86
2023/07/27 11:25:24;;;;;;;4.07;2.30;;;;;;;-142.57;43.22;115900.28;6163075;23;20009;-85
2023/07/27 11:27:52;;;;;;;8.63;2.70;;;;;;;-142.57;42.44;115900.28;6137390;23;20457;-84
2023/07/27 11:30:21;;;;;;;5.63;2.08;;;;;;;-142.57;40.80;115900.28;6161134;23;20036;-86